LFCK/DCM METAR and TAF weather

Enter ICAO airport designator
Station Type Date Time Source
LFCK METAR 2019/02/22 23:00 UTC NOAA

LFCK 222300Z AUTO 11003KT CAVOK 07/01 Q1029


Station Type Date Time Source
LFCK Decoded METAR 2019/02/22 23:00 UTC NOAA

Station name not available
Feb 22, 2019 - 06:00 PM EST / 2019.02.22 2300 UTC
Wind: from the ESE (110 degrees) at 3 MPH (3 KT):0
Visibility: greater than 7 mile(s):0
Temperature: 44 F (7 C)
Dew Point: 33 F (1 C)
Relative Humidity: 65%
Pressure (altimeter): 30.39 in. Hg (1029 hPa)
ob: LFCK 222300Z AUTO 11003KT CAVOK 07/01 Q1029
cycle: 23

Station Type Date Time Source
LFCK TAF UTC NOAA

Error!


Example: see airport list